Time;durP1;ratioP1;P1;durP2;ratioP2;P2;SDS_P1;SDS_P2;PMS_P1;PMS_P2;Temp;Humidity;BMP_temperature;BMP_pressure;BME280_temperature;BME280_humidity;BME280_pressure;Samples;Min_cycle;Max_cycle;Signal;HPM_P1;HPM_P2
2021/07/09 00:02:23;;;;;;;14.20;11.32;;;28.10;64.60;;;;;;6177801;28;83267;-65
2021/07/09 00:05:24;;;;;;;14.70;11.00;;;28.10;64.70;;;;;;6178742;28;82993;-66
2021/07/09 00:08:24;;;;;;;14.38;11.07;;;28.10;64.90;;;;;;6170270;28;83018;-65
2021/07/09 00:11:25;;;;;;;16.23;11.65;;;28.10;64.70;;;;;;6176363;28;85572;-65
2021/07/09 00:14:25;;;;;;;16.88;11.40;;;28.10;64.60;;;;;;6177336;28;84052;-65
2021/07/09 00:17:26;;;;;;;17.75;12.32;;;28.10;65.30;;;;;;6166256;28;83124;-65
2021/07/09 00:20:27;;;;;;;14.70;12.05;;;28.10;64.50;;;;;;6179476;28;83353;-65
2021/07/09 00:23:27;;;;;;;13.35;11.65;;;28.00;64.60;;;;;;6175713;28;83285;-64
2021/07/09 00:26:28;;;;;;;14.25;12.48;;;28.00;64.50;;;;;;6179927;28;82885;-64
2021/07/09 00:29:29;;;;;;;16.58;13.02;;;28.00;64.80;;;;;;6177961;28;84414;-65
2021/07/09 00:32:29;;;;;;;14.73;12.18;;;28.00;64.90;;;;;;6174856;28;85418;-64
2021/07/09 00:35:30;;;;;;;17.63;12.55;;;28.00;64.80;;;;;;6170250;28;82969;-65
2021/07/09 00:38:30;;;;;;;16.98;12.20;;;28.00;64.80;;;;;;6178255;28;83462;-65
2021/07/09 00:41:31;;;;;;;12.23;10.50;;;28.00;64.80;;;;;;6177762;28;84176;-65
2021/07/09 00:44:31;;;;;;;15.35;11.15;;;28.00;64.70;;;;;;6168533;28;85913;-65
2021/07/09 00:47:32;;;;;;;12.60;10.98;;;28.00;64.70;;;;;;6178113;28;83320;-65
2021/07/09 00:50:32;;;;;;;15.25;10.75;;;28.00;64.80;;;;;;6176071;28;83510;-65
2021/07/09 00:53:33;;;;;;;13.15;10.90;;;28.10;64.40;;;;;;6165531;28;83041;-65
2021/07/09 00:56:33;;;;;;;14.75;11.65;;;28.00;64.40;;;;;;6181931;28;83227;-65
2021/07/09 00:59:34;;;;;;;17.25;14.10;;;28.00;64.40;;;;;;6165163;28;83015;-64
2021/07/09 01:02:34;;;;;;;13.32;10.57;;;28.00;64.70;;;;;;6178937;28;83903;-64
2021/07/09 01:05:35;;;;;;;12.90;11.20;;;28.00;64.40;;;;;;6177411;28;84125;-64
2021/07/09 01:08:35;;;;;;;14.45;10.60;;;28.00;64.30;;;;;;6177297;28;83173;-65
2021/07/09 01:11:36;;;;;;;13.68;11.57;;;28.00;64.20;;;;;;6177782;28;83291;-64
2021/07/09 01:14:36;;;;;;;14.35;11.30;;;28.00;64.20;;;;;;6177356;28;83285;-65
2021/07/09 01:17:37;;;;;;;14.57;11.85;;;28.00;64.40;;;;;;6174787;28;83410;-65
2021/07/09 01:20:37;;;;;;;13.45;10.48;;;28.00;64.50;;;;;;6175494;28;83069;-65
2021/07/09 01:23:38;;;;;;;17.48;12.55;;;28.00;64.20;;;;;;6172061;28;83160;-65
2021/07/09 01:26:38;;;;;;;14.85;11.85;;;28.00;64.20;;;;;;6175120;28;83581;-65
2021/07/09 01:29:39;;;;;;;16.40;11.75;;;28.00;64.50;;;;;;6177325;28;82918;-65
2021/07/09 01:32:40;;;;;;;15.65;12.18;;;28.00;64.60;;;;;;6177226;28;84080;-65
2021/07/09 01:35:40;;;;;;;15.20;11.85;;;28.00;64.60;;;;;;6178437;28;83390;-65
2021/07/09 01:38:40;;;;;;;18.42;12.77;;;27.90;64.70;;;;;;6177054;28;85422;-65
2021/07/09 01:41:41;;;;;;;18.00;12.95;;;28.00;65.20;;;;;;6174415;28;84164;-65
2021/07/09 01:44:45;;;;;;;21.08;12.85;;;27.90;65.00;;;;;;6169683;28;83142;-64
2021/07/09 01:47:45;;;;;;;16.63;13.38;;;27.90;64.80;;;;;;6169357;28;84252;-64
2021/07/09 01:50:46;;;;;;;16.60;12.95;;;27.90;64.80;;;;;;6177399;28;83072;-65
2021/07/09 01:53:46;;;;;;;14.70;12.55;;;27.90;64.90;;;;;;6175462;28;83016;-65
2021/07/09 01:56:47;;;;;;;17.02;13.32;;;27.90;64.90;;;;;;6174342;28;83589;-65
2021/07/09 01:59:47;;;;;;;18.48;12.55;;;27.90;64.90;;;;;;6172565;28;83141;-65
2021/07/09 02:02:48;;;;;;;16.85;12.50;;;27.90;64.70;;;;;;6175808;28;83301;-65
2021/07/09 02:05:48;;;;;;;15.07;12.13;;;27.90;64.70;;;;;;6168283;28;83129;-65
2021/07/09 02:08:49;;;;;;;16.75;13.30;;;27.90;64.80;;;;;;6169398;28;83878;-65
2021/07/09 02:11:49;;;;;;;20.23;12.80;;;27.90;64.70;;;;;;6171295;28;84059;-66
2021/07/09 02:14:50;;;;;;;15.63;12.95;;;27.90;64.70;;;;;;6123355;28;83296;-65
2021/07/09 02:17:50;;;;;;;18.02;13.27;;;27.90;64.60;;;;;;6180827;28;86369;-65
2021/07/09 02:20:51;;;;;;;15.07;12.95;;;27.90;64.60;;;;;;6174327;28;83305;-65
2021/07/09 02:23:51;;;;;;;21.92;13.57;;;27.90;64.60;;;;;;6179190;28;82806;-66
2021/07/09 02:26:52;;;;;;;21.10;13.63;;;27.90;64.60;;;;;;6180617;28;83656;-65
2021/07/09 02:29:53;;;;;;;19.33;13.70;;;27.90;64.30;;;;;;6173738;28;83305;-65
2021/07/09 02:32:53;;;;;;;16.27;12.57;;;27.90;64.50;;;;;;6176029;28;82877;-65
2021/07/09 02:35:54;;;;;;;16.52;13.32;;;27.90;64.70;;;;;;6179386;28;83755;-65
2021/07/09 02:38:54;;;;;;;15.05;12.65;;;27.90;64.60;;;;;;6174568;28;83587;-65
2021/07/09 02:41:55;;;;;;;17.50;13.45;;;27.90;64.70;;;;;;6167541;28;83759;-64
2021/07/09 02:44:55;;;;;;;16.27;13.13;;;27.90;64.50;;;;;;6173533;28;83172;-65
2021/07/09 02:47:56;;;;;;;16.17;13.05;;;27.90;64.70;;;;;;6174591;28;84780;-65
2021/07/09 02:50:56;;;;;;;15.27;13.05;;;27.90;64.60;;;;;;6179085;28;83574;-65
2021/07/09 02:53:57;;;;;;;22.08;13.73;;;27.90;64.50;;;;;;6167773;28;84069;-64
2021/07/09 02:56:57;;;;;;;19.65;13.57;;;27.80;64.30;;;;;;6173971;28;83543;-65
2021/07/09 02:59:58;;;;;;;16.05;13.13;;;27.80;64.50;;;;;;6176645;28;83062;-66
2021/07/09 03:02:58;;;;;;;18.05;13.13;;;27.80;64.30;;;;;;6173842;28;84020;-66
2021/07/09 03:05:59;;;;;;;17.02;13.95;;;27.90;64.60;;;;;;6168874;28;85253;-65
2021/07/09 03:09:01;;;;;;;16.23;13.27;;;27.80;64.20;;;;;;6175448;28;83160;-65
2021/07/09 03:12:01;;;;;;;17.02;13.55;;;27.80;64.10;;;;;;6174765;28;83728;-65
2021/07/09 03:15:02;;;;;;;17.70;13.48;;;27.80;64.20;;;;;;6174091;28;83554;-65
2021/07/09 03:18:02;;;;;;;21.58;12.68;;;27.80;64.40;;;;;;6172259;28;83462;-65
2021/07/09 03:21:03;;;;;;;18.65;13.75;;;27.80;64.20;;;;;;6180848;28;83119;-65
2021/07/09 03:24:03;;;;;;;17.35;13.95;;;27.80;64.70;;;;;;6174466;28;83825;-64
2021/07/09 03:27:04;;;;;;;21.98;13.77;;;27.80;64.10;;;;;;6179584;28;83297;-64
2021/07/09 03:30:04;;;;;;;19.48;13.98;;;27.90;64.10;;;;;;6167827;28;83194;-64
2021/07/09 03:33:05;;;;;;;16.88;13.20;;;27.90;64.00;;;;;;6173025;28;83683;-63
2021/07/09 03:36:05;;;;;;;24.13;13.68;;;27.90;63.90;;;;;;6172553;28;85918;-64
2021/07/09 03:39:06;;;;;;;17.60;12.55;;;27.90;63.90;;;;;;6172182;28;83263;-64
2021/07/09 03:42:07;;;;;;;17.30;12.60;;;27.90;63.90;;;;;;6179034;28;83956;-64
2021/07/09 03:45:07;;;;;;;15.45;12.43;;;27.90;63.90;;;;;;6179450;28;83585;-65
2021/07/09 03:48:08;;;;;;;17.33;12.70;;;27.90;63.90;;;;;;6171533;28;82858;-65
2021/07/09 03:51:08;;;;;;;16.25;13.25;;;27.90;63.90;;;;;;6170571;28;82871;-67
2021/07/09 03:54:10;;;;;;;18.30;13.45;;;27.90;63.90;;;;;;6176335;28;83273;-66
2021/07/09 03:57:11;;;;;;;20.25;13.38;;;27.90;64.00;;;;;;6166031;28;83124;-66
2021/07/09 04:00:11;;;;;;;17.15;13.38;;;27.90;64.00;;;;;;6177847;28;84109;-65
2021/07/09 04:03:16;;;;;;;19.98;14.10;;;27.90;63.90;;;;;;6168052;28;84167;-65
2021/07/09 04:06:16;;;;;;;20.70;13.63;;;27.90;64.00;;;;;;6177279;28;84616;-64
2021/07/09 04:09:17;;;;;;;19.00;14.75;;;27.90;64.00;;;;;;6178703;28;84188;-64
2021/07/09 04:12:17;;;;;;;20.05;14.63;;;27.90;64.50;;;;;;6173596;28;83170;-65
2021/07/09 04:15:19;;;;;;;21.33;14.38;;;27.90;64.30;;;;;;6176663;28;83474;-64
2021/07/09 04:18:20;;;;;;;18.33;14.40;;;27.90;64.50;;;;;;6165211;28;83545;-64
2021/07/09 04:21:20;;;;;;;20.08;13.85;;;27.90;64.50;;;;;;6166597;28;83263;-64
2021/07/09 04:24:21;;;;;;;17.27;13.23;;;27.90;64.40;;;;;;6180536;28;83219;-64
2021/07/09 04:27:21;;;;;;;17.70;13.98;;;27.90;64.40;;;;;;6164791;28;83546;-66
2021/07/09 04:30:22;;;;;;;22.92;14.20;;;27.90;64.50;;;;;;6166299;28;83433;-66
2021/07/09 04:33:22;;;;;;;20.42;13.50;;;27.90;64.30;;;;;;6164126;28;83101;-65
2021/07/09 04:36:23;;;;;;;23.75;14.20;;;27.90;64.30;;;;;;6170448;28;83056;-63
2021/07/09 04:39:23;;;;;;;19.33;13.88;;;27.90;64.70;;;;;;6163775;28;84159;-65
2021/07/09 04:42:24;;;;;;;18.90;13.88;;;27.90;64.40;;;;;;6162908;28;83614;-66
2021/07/09 04:45:24;;;;;;;21.38;13.77;;;27.90;64.40;;;;;;6172059;28;83495;-67
2021/07/09 04:48:25;;;;;;;16.67;13.38;;;27.90;64.40;;;;;;6169961;28;83086;-68
2021/07/09 04:51:25;;;;;;;17.92;12.48;;;27.90;64.30;;;;;;6171807;28;83011;-67
2021/07/09 04:54:26;;;;;;;18.25;13.48;;;28.00;64.40;;;;;;6168375;28;85182;-67
2021/07/09 04:57:30;;;;;;;17.02;13.70;;;28.00;64.50;;;;;;6171632;28;83350;-67
2021/07/09 05:00:30;;;;;;;20.50;13.13;;;28.00;64.30;;;;;;6182536;28;84189;-67
2021/07/09 05:03:31;;;;;;;22.33;13.75;;;28.00;64.00;;;;;;6169800;28;83142;-68
2021/07/09 05:06:31;;;;;;;19.25;13.20;;;28.00;64.00;;;;;;6178321;28;83228;-68
2021/07/09 05:09:32;;;;;;;18.80;12.68;;;28.00;64.40;;;;;;6177948;28;83830;-68
2021/07/09 05:12:32;;;;;;;18.17;13.80;;;27.90;64.10;;;;;;6179071;28;82946;-68
2021/07/09 05:15:33;;;;;;;13.57;11.48;;;27.90;64.40;;;;;;6171492;28;83196;-69
2021/07/09 05:18:33;;;;;;;15.40;12.63;;;27.90;64.40;;;;;;6171999;28;84255;-68
2021/07/09 05:21:34;;;;;;;14.75;12.07;;;27.90;64.60;;;;;;6166221;28;83468;-69
2021/07/09 05:24:34;;;;;;;15.98;12.25;;;28.00;64.70;;;;;;6176684;28;82928;-67
2021/07/09 05:27:35;;;;;;;16.50;12.57;;;28.00;64.80;;;;;;6169090;28;85489;-67
2021/07/09 05:30:35;;;;;;;17.27;13.10;;;28.00;64.80;;;;;;6176118;28;84906;-67
2021/07/09 05:33:36;;;;;;;16.80;12.80;;;28.00;64.70;;;;;;6170297;28;83229;-67
2021/07/09 05:36:36;;;;;;;25.10;13.75;;;28.10;64.50;;;;;;6168088;28;83526;-67
2021/07/09 05:39:37;;;;;;;16.70;12.32;;;28.10;64.70;;;;;;6165757;28;85120;-68
2021/07/09 05:42:37;;;;;;;16.10;12.52;;;28.10;64.70;;;;;;6167305;28;83068;-67
2021/07/09 05:45:38;;;;;;;21.40;13.45;;;28.10;65.00;;;;;;6164199;28;83476;-67
2021/07/09 05:48:38;;;;;;;17.80;13.63;;;28.10;64.80;;;;;;6165836;28;83148;-67
2021/07/09 05:51:39;;;;;;;17.45;12.60;;;28.20;65.30;;;;;;6165363;28;83366;-68
2021/07/09 05:54:39;;;;;;;17.75;13.32;;;28.20;65.60;;;;;;6169235;28;83196;-67
2021/07/09 05:57:40;;;;;;;16.30;12.55;;;28.20;65.50;;;;;;6169766;28;84151;-68
2021/07/09 06:00:41;;;;;;;26.00;14.32;;;28.30;65.90;;;;;;6168781;28;83477;-68
2021/07/09 06:03:41;;;;;;;20.25;12.80;;;28.20;66.10;;;;;;6166315;28;88514;-67
2021/07/09 06:06:42;;;;;;;17.67;12.05;;;28.20;66.40;;;;;;6185601;28;84651;-67
2021/07/09 06:09:42;;;;;;;21.52;13.10;;;28.30;66.50;;;;;;6175133;28;85242;-67
2021/07/09 06:12:43;;;;;;;18.98;12.82;;;28.30;66.50;;;;;;6174762;28;83057;-67
2021/07/09 06:15:43;;;;;;;16.92;12.32;;;28.20;66.50;;;;;;6181808;28;84334;-67
2021/07/09 06:18:44;;;;;;;18.23;13.02;;;28.30;66.90;;;;;;6168042;28;83204;-67
2021/07/09 06:21:44;;;;;;;23.77;13.38;;;28.20;66.10;;;;;;6170481;28;83907;-67
2021/07/09 06:24:45;;;;;;;18.73;13.02;;;28.30;66.40;;;;;;6169117;28;83166;-66
2021/07/09 06:27:47;;;;;;;18.13;13.13;;;28.30;66.20;;;;;;6170884;28;84322;-66
2021/07/09 06:30:47;;;;;;;14.73;12.00;;;28.30;65.80;;;;;;6165097;28;83112;-65
2021/07/09 06:33:48;;;;;;;19.30;12.30;;;28.30;65.90;;;;;;6169316;28;84220;-68
2021/07/09 06:36:48;;;;;;;13.55;11.75;;;28.30;65.90;;;;;;6173010;28;82937;-68
2021/07/09 06:39:49;;;;;;;14.85;11.82;;;28.30;66.00;;;;;;6165378;28;83216;-67
2021/07/09 06:42:49;;;;;;;14.43;11.60;;;28.30;65.90;;;;;;6165326;28;83120;-69
2021/07/09 06:45:50;;;;;;;17.40;12.60;;;28.30;66.10;;;;;;6170378;28;84482;-67
2021/07/09 06:48:50;;;;;;;21.38;12.90;;;28.30;65.70;;;;;;6178826;28;83054;-67
2021/07/09 06:51:51;;;;;;;17.75;12.73;;;28.40;65.70;;;;;;6181065;28;84087;-66
2021/07/09 06:54:51;;;;;;;14.13;11.45;;;28.30;65.60;;;;;;6174130;28;83909;-68
2021/07/09 06:57:52;;;;;;;12.75;11.38;;;28.30;66.30;;;;;;6175391;28;85088;-67
2021/07/09 07:00:52;;;;;;;17.00;12.68;;;28.40;65.90;;;;;;6173149;28;82900;-67
2021/07/09 07:03:53;;;;;;;18.65;12.32;;;28.40;66.20;;;;;;6167722;28;85142;-68
2021/07/09 07:06:53;;;;;;;19.35;14.02;;;28.40;66.20;;;;;;6197411;28;84543;-67
2021/07/09 07:09:54;;;;;;;17.92;11.82;;;28.40;65.80;;;;;;6170936;28;83907;-68
2021/07/09 07:12:54;;;;;;;20.23;13.23;;;28.40;66.60;;;;;;6168755;28;84168;-67
2021/07/09 07:15:55;;;;;;;19.65;12.55;;;28.40;65.60;;;;;;6169474;28;83316;-67
2021/07/09 07:18:55;;;;;;;14.65;11.90;;;28.40;65.70;;;;;;6167514;28;82997;-66
2021/07/09 07:21:58;;;;;;;16.33;12.43;;;28.40;65.60;;;;;;6167508;28;90547;-67
2021/07/09 07:24:59;;;;;;;14.90;11.93;;;28.40;65.20;;;;;;6168370;28;83787;-67
2021/07/09 07:28:00;;;;;;;15.52;11.80;;;28.40;65.00;;;;;;6167497;28;83281;-66
2021/07/09 07:31:00;;;;;;;16.45;11.88;;;28.40;64.70;;;;;;6179100;28;83410;-68
2021/07/09 07:34:01;;;;;;;16.05;12.88;;;28.30;64.90;;;;;;6169790;28;83239;-66
2021/07/09 07:37:01;;;;;;;14.77;12.18;;;28.40;65.00;;;;;;6167739;28;84259;-67
2021/07/09 07:40:02;;;;;;;16.17;12.90;;;28.40;64.60;;;;;;6166922;28;83968;-68
2021/07/09 07:43:03;;;;;;;15.48;12.85;;;28.40;64.70;;;;;;6173569;28;83431;-67
2021/07/09 07:46:06;;;;;;;18.15;12.63;;;28.40;64.70;;;;;;6171912;28;84440;-66
2021/07/09 07:49:06;;;;;;;16.73;12.45;;;28.40;64.60;;;;;;6175737;28;84182;-67
2021/07/09 07:52:07;;;;;;;17.55;12.25;;;28.40;64.70;;;;;;6171971;28;83621;-66
2021/07/09 07:55:07;;;;;;;19.10;12.25;;;28.40;64.50;;;;;;6180234;28;83468;-67
2021/07/09 07:58:08;;;;;;;17.33;11.82;;;28.40;64.40;;;;;;6168679;28;84184;-68
2021/07/09 08:01:09;;;;;;;15.45;12.43;;;28.30;64.50;;;;;;6170737;28;83405;-68
2021/07/09 08:04:09;;;;;;;16.42;12.85;;;28.30;64.70;;;;;;6172840;28;82702;-68
2021/07/09 08:07:10;;;;;;;16.92;12.32;;;28.40;64.10;;;;;;6172129;28;83020;-68
2021/07/09 08:10:10;;;;;;;21.10;13.25;;;28.50;64.50;;;;;;6167115;28;83873;-68
2021/07/09 08:13:11;;;;;;;18.15;13.07;;;28.50;64.40;;;;;;6171990;28;87203;-68
2021/07/09 08:16:11;;;;;;;18.35;13.63;;;28.50;63.90;;;;;;6168033;28;83118;-68
2021/07/09 08:19:12;;;;;;;15.25;13.18;;;28.50;64.10;;;;;;6169945;28;83357;-67
2021/07/09 08:22:13;;;;;;;14.52;12.63;;;28.50;64.00;;;;;;6170166;28;82956;-68
2021/07/09 08:25:14;;;;;;;17.08;12.40;;;28.60;64.40;;;;;;6171454;28;83261;-66
2021/07/09 08:28:14;;;;;;;15.93;13.05;;;28.60;64.20;;;;;;6173497;28;83706;-68
2021/07/09 08:31:15;;;;;;;15.88;12.75;;;28.60;64.90;;;;;;6171207;28;83357;-67
2021/07/09 08:34:15;;;;;;;16.33;13.57;;;28.60;64.50;;;;;;6171709;28;83324;-67
2021/07/09 08:37:16;;;;;;;16.60;13.40;;;28.60;64.50;;;;;;6170464;28;82904;-67
2021/07/09 08:40:16;;;;;;;17.02;13.13;;;28.60;64.40;;;;;;6166227;28;83792;-67
2021/07/09 08:43:17;;;;;;;14.65;12.68;;;28.70;64.10;;;;;;6172366;28;83402;-67
2021/07/09 08:46:17;;;;;;;17.70;12.77;;;28.70;64.10;;;;;;6172388;28;83761;-66
2021/07/09 08:49:19;;;;;;;15.52;13.05;;;28.70;64.70;;;;;;6172725;28;84892;-67
2021/07/09 08:52:20;;;;;;;16.27;13.32;;;28.60;64.20;;;;;;6177348;28;85785;-66
2021/07/09 08:55:20;;;;;;;34.22;12.90;;;28.60;64.20;;;;;;6172774;28;83817;-66
2021/07/09 08:58:21;;;;;;;17.30;13.50;;;28.70;64.50;;;;;;6172276;28;84071;-66
2021/07/09 09:01:21;;;;;;;18.77;12.82;;;28.70;64.20;;;;;;6168232;28;83322;-67
2021/07/09 09:04:22;;;;;;;16.75;13.77;;;28.70;64.10;;;;;;6174139;28;84034;-67
2021/07/09 09:07:22;;;;;;;17.02;12.82;;;28.70;64.20;;;;;;6166868;28;83692;-67
2021/07/09 09:10:23;;;;;;;19.05;13.45;;;28.70;64.20;;;;;;6174419;28;84210;-67
2021/07/09 09:13:23;;;;;;;19.40;14.55;;;28.70;64.10;;;;;;6168969;28;83518;-67
2021/07/09 09:16:24;;;;;;;16.38;13.32;;;28.70;64.00;;;;;;6166648;28;84444;-68
2021/07/09 09:19:24;;;;;;;18.42;14.20;;;28.70;63.70;;;;;;6165563;28;83048;-67
2021/07/09 09:22:25;;;;;;;17.52;14.02;;;28.70;63.60;;;;;;6178761;28;83024;-67
2021/07/09 09:25:25;;;;;;;19.63;14.85;;;28.70;63.50;;;;;;6166605;28;83417;-67
2021/07/09 09:28:26;;;;;;;18.13;14.18;;;28.70;63.80;;;;;;6164040;28;83695;-66
2021/07/09 09:31:26;;;;;;;18.83;15.25;;;28.70;64.20;;;;;;6165976;28;83937;-67
2021/07/09 09:34:27;;;;;;;24.42;17.58;;;28.70;64.70;;;;;;6169335;28;84728;-67
2021/07/09 09:37:30;;;;;;;20.70;17.08;;;28.70;66.10;;;;;;6164702;28;83159;-66
2021/07/09 09:40:31;;;;;;;19.92;15.52;;;28.70;66.30;;;;;;6163819;28;83412;-66
2021/07/09 09:43:31;;;;;;;20.52;14.98;;;28.80;65.70;;;;;;6165574;28;83192;-67
2021/07/09 09:46:32;;;;;;;18.00;15.77;;;28.80;65.40;;;;;;6164276;28;84764;-66
2021/07/09 09:49:32;;;;;;;21.92;17.58;;;28.90;64.60;;;;;;6166604;28;83442;-67
2021/07/09 09:52:34;;;;;;;18.80;15.10;;;28.90;64.80;;;;;;6164241;28;83169;-67
2021/07/09 09:55:34;;;;;;;19.95;15.57;;;28.90;64.30;;;;;;6164608;28;83156;-67
2021/07/09 09:58:35;;;;;;;22.30;15.13;;;28.90;64.40;;;;;;6164764;28;85968;-67
2021/07/09 10:01:35;;;;;;;19.30;13.38;;;28.80;64.20;;;;;;6176909;28;85724;-67
2021/07/09 10:04:36;;;;;;;17.55;13.93;;;28.80;64.20;;;;;;6173364;28;83013;-66
2021/07/09 10:07:36;;;;;;;15.18;13.27;;;28.90;64.50;;;;;;6165132;28;82766;-66
2021/07/09 10:10:37;;;;;;;17.88;12.40;;;28.90;64.70;;;;;;6164724;28;84335;-67
2021/07/09 10:13:37;;;;;;;15.73;13.18;;;28.90;64.20;;;;;;6165011;28;83159;-68
2021/07/09 10:16:38;;;;;;;16.08;13.27;;;28.90;64.40;;;;;;6164873;28;83704;-67
2021/07/09 10:19:38;;;;;;;14.70;12.85;;;28.90;64.60;;;;;;6166155;28;83230;-67
2021/07/09 10:22:39;;;;;;;12.85;11.55;;;28.90;64.60;;;;;;6167193;28;83824;-66
2021/07/09 10:25:40;;;;;;;14.43;12.65;;;28.90;64.60;;;;;;6170808;28;83056;-67
2021/07/09 10:28:40;;;;;;;13.40;11.57;;;28.90;64.70;;;;;;6165633;28;83297;-67
2021/07/09 10:31:41;;;;;;;16.38;12.13;;;28.90;64.60;;;;;;6164918;28;85157;-67
2021/07/09 10:34:44;;;;;;;14.15;12.02;;;28.90;64.40;;;;;;6163979;28;83116;-67
2021/07/09 10:37:45;;;;;;;15.50;12.32;;;28.90;64.20;;;;;;6158344;28;83130;-66
2021/07/09 10:40:45;;;;;;;12.35;11.00;;;28.90;64.10;;;;;;6164833;28;83225;-64
2021/07/09 10:43:46;;;;;;;16.75;12.52;;;28.90;63.90;;;;;;6171163;28;83159;-63
2021/07/09 10:46:47;;;;;;;13.70;11.40;;;28.90;63.50;;;;;;6166354;28;85757;-65
2021/07/09 10:49:48;;;;;;;15.20;12.93;;;28.90;63.70;;;;;;6169658;28;83555;-65
2021/07/09 10:52:48;;;;;;;16.88;11.82;;;28.90;63.60;;;;;;6167203;28;83146;-66
2021/07/09 10:55:49;;;;;;;19.65;12.27;;;28.90;63.80;;;;;;6172808;28;84471;-66
2021/07/09 10:58:49;;;;;;;14.40;12.90;;;28.90;63.90;;;;;;6168066;28;83667;-66
2021/07/09 11:01:50;;;;;;;16.23;11.77;;;28.80;63.60;;;;;;6169302;28;83051;-67
2021/07/09 11:04:50;;;;;;;15.23;11.70;;;28.80;63.50;;;;;;6166711;28;83345;-66
2021/07/09 11:07:51;;;;;;;12.65;11.30;;;28.80;63.40;;;;;;6167518;28;82966;-66
2021/07/09 11:10:51;;;;;;;13.95;12.52;;;28.80;63.30;;;;;;6170212;28;83583;-67
2021/07/09 11:13:52;;;;;;;16.70;12.48;;;28.80;63.50;;;;;;6168206;28;83192;-67
2021/07/09 11:16:59;;;;;;;16.30;12.07;;;28.80;63.60;;;;;;6173047;28;83000;-66
2021/07/09 11:19:59;;;;;;;17.08;12.38;;;28.80;63.10;;;;;;6173690;28;83175;-66
2021/07/09 11:23:00;;;;;;;16.20;11.93;;;28.80;62.40;;;;;;6169072;28;84967;-67
2021/07/09 11:26:00;;;;;;;14.90;12.02;;;28.90;62.50;;;;;;6169027;28;83648;-67
2021/07/09 11:29:01;;;;;;;13.75;11.52;;;28.90;62.60;;;;;;6173018;28;84010;-65
2021/07/09 11:32:01;;;;;;;17.27;12.48;;;28.80;62.70;;;;;;6169420;28;83189;-65
2021/07/09 11:35:02;;;;;;;20.27;10.68;;;28.90;63.20;;;;;;6173254;28;83649;-65
2021/07/09 11:38:02;;;;;;;18.30;9.38;;;28.90;61.80;;;;;;6172446;28;84779;-65
2021/07/09 11:41:03;;;;;;;12.00;7.05;;;28.80;58.90;;;;;;6170736;28;83976;-65
2021/07/09 11:44:04;;;;;;;9.63;6.28;;;28.80;57.10;;;;;;6174926;28;80084;-66
2021/07/09 11:47:04;;;;;;;10.60;6.50;;;28.80;55.70;;;;;;6178323;28;80454;-64
2021/07/09 11:50:05;;;;;;;10.10;5.95;;;28.80;55.10;;;;;;6175913;28;80348;-66
2021/07/09 11:53:05;;;;;;;12.73;6.03;;;28.80;54.90;;;;;;6177470;28;81680;-64
2021/07/09 11:56:06;;;;;;;7.50;5.72;;;28.70;54.10;;;;;;6172734;28;81151;-66
2021/07/09 11:59:06;;;;;;;7.85;5.78;;;28.70;53.90;;;;;;6174138;28;80748;-65
2021/07/09 12:02:07;;;;;;;9.10;7.38;;;28.80;54.30;;;;;;6176218;28;80357;-66
2021/07/09 12:05:07;;;;;;;14.07;7.55;;;28.70;55.20;;;;;;6174346;28;80384;-66
2021/07/09 12:08:09;;;;;;;14.30;7.53;;;28.70;54.90;;;;;;6178595;28;80860;-68
2021/07/09 12:11:09;;;;;;;12.20;7.28;;;28.70;54.60;;;;;;6170209;28;80620;-66
2021/07/09 12:14:10;;;;;;;12.65;7.78;;;28.70;54.10;;;;;;6168222;28;80522;-66
2021/07/09 12:17:11;;;;;;;14.82;7.88;;;28.70;54.20;;;;;;6172797;28;80363;-65
2021/07/09 12:20:11;;;;;;;11.85;8.23;;;28.70;54.70;;;;;;6179680;28;80926;-65
2021/07/09 12:23:12;;;;;;;13.85;8.00;;;28.70;55.30;;;;;;6176201;28;80640;-65
2021/07/09 12:26:12;;;;;;;14.73;8.65;;;28.70;56.00;;;;;;6175482;28;80631;-65
2021/07/09 12:29:13;;;;;;;16.25;8.95;;;28.80;56.50;;;;;;6171250;28;81490;-66
2021/07/09 12:32:13;;;;;;;13.35;8.68;;;28.70;56.40;;;;;;6170265;28;80954;-66
2021/07/09 12:35:14;;;;;;;10.20;8.77;;;28.70;56.60;;;;;;6177039;28;80840;-66
2021/07/09 12:38:15;;;;;;;12.40;8.55;;;28.70;56.70;;;;;;6166590;28;80754;-67
2021/07/09 12:41:15;;;;;;;18.17;9.13;;;28.80;57.00;;;;;;6175111;28;80443;-66
2021/07/09 12:44:16;;;;;;;12.38;8.00;;;28.80;57.40;;;;;;6169915;28;80321;-66
2021/07/09 12:47:16;;;;;;;15.25;8.30;;;28.80;57.40;;;;;;6168887;28;81207;-66
2021/07/09 12:50:17;;;;;;;15.02;7.78;;;28.70;58.00;;;;;;6176649;28;80314;-65
2021/07/09 12:53:17;;;;;;;15.63;8.38;;;28.80;57.50;;;;;;6169541;28;80336;-65
2021/07/09 12:56:19;;;;;;;12.60;8.13;;;28.70;57.60;;;;;;6175636;28;80506;-65
2021/07/09 12:59:19;;;;;;;12.10;7.80;;;28.80;57.80;;;;;;6173277;28;80901;-65
2021/07/09 13:02:20;;;;;;;10.50;7.25;;;28.80;57.90;;;;;;6169860;28;80538;-65
2021/07/09 13:05:21;;;;;;;11.43;7.38;;;28.80;58.00;;;;;;6166475;28;80350;-65
2021/07/09 13:08:21;;;;;;;9.95;7.22;;;28.80;58.10;;;;;;6173422;28;81510;-65
2021/07/09 13:11:22;;;;;;;12.35;8.07;;;28.80;58.30;;;;;;6169827;28;80630;-66
2021/07/09 13:14:22;;;;;;;11.13;7.38;;;28.80;58.30;;;;;;6169258;28;81308;-66
2021/07/09 13:17:23;;;;;;;7.80;6.60;;;28.80;58.30;;;;;;6175893;28;80662;-65
2021/07/09 13:20:23;;;;;;;11.57;7.53;;;28.80;58.40;;;;;;6168906;28;80106;-68
2021/07/09 13:23:24;;;;;;;10.52;8.40;;;28.80;58.60;;;;;;6170252;28;80566;-68
2021/07/09 13:26:24;;;;;;;11.82;7.20;;;28.80;58.80;;;;;;6183481;28;81677;-67
2021/07/09 13:29:25;;;;;;;12.52;7.68;;;28.80;59.00;;;;;;6169651;28;80266;-68
2021/07/09 13:32:26;;;;;;;13.25;7.15;;;28.80;59.40;;;;;;6168711;28;82123;-67
2021/07/09 13:35:26;;;;;;;13.13;7.40;;;28.70;59.30;;;;;;6173580;28;87337;-68
2021/07/09 13:38:26;;;;;;;10.63;6.80;;;28.70;59.40;;;;;;6187422;28;82109;-69
2021/07/09 13:41:28;;;;;;;13.25;6.60;;;28.70;59.60;;;;;;6173642;28;80818;-67
2021/07/09 13:44:28;;;;;;;13.98;6.72;;;28.70;59.60;;;;;;6170731;28;80872;-67
2021/07/09 13:47:29;;;;;;;14.82;7.07;;;28.70;59.50;;;;;;6165658;28;80325;-67
2021/07/09 13:50:32;;;;;;;13.77;7.00;;;28.70;59.30;;;;;;6167248;28;80886;-68
2021/07/09 13:53:34;;;;;;;13.05;6.93;;;28.70;59.50;;;;;;6171363;28;82026;-66
2021/07/09 13:56:34;;;;;;;14.40;8.05;;;28.70;59.20;;;;;;6169964;28;81235;-66
2021/07/09 13:59:35;;;;;;;13.75;7.65;;;28.70;59.10;;;;;;6174331;28;80886;-66
2021/07/09 14:02:35;;;;;;;15.98;7.40;;;28.70;59.40;;;;;;6170961;28;80594;-67
2021/07/09 14:05:36;;;;;;;13.77;7.63;;;28.60;59.10;;;;;;6173869;28;81636;-68
2021/07/09 14:08:36;;;;;;;14.20;7.78;;;28.60;58.90;;;;;;6175919;28;86493;-67
2021/07/09 14:11:37;;;;;;;13.60;7.53;;;28.60;58.70;;;;;;6176456;28;81883;-69
2021/07/09 14:14:37;;;;;;;13.90;7.55;;;28.60;58.40;;;;;;6179879;28;80429;-69
2021/07/09 14:17:38;;;;;;;13.30;6.80;;;28.60;58.30;;;;;;6181768;28;80745;-68
2021/07/09 14:20:38;;;;;;;14.90;7.53;;;28.60;58.50;;;;;;6185585;28;80779;-67
2021/07/09 14:23:39;;;;;;;15.38;7.03;;;28.60;58.60;;;;;;6178765;28;81277;-66
2021/07/09 14:26:39;;;;;;;10.77;6.07;;;28.60;58.70;;;;;;6179940;28;80339;-67
2021/07/09 14:29:40;;;;;;;11.82;6.60;;;28.60;58.90;;;;;;6184784;28;80802;-68
2021/07/09 14:32:40;;;;;;;16.65;7.05;;;28.60;59.00;;;;;;6184403;28;80409;-67
2021/07/09 14:35:41;;;;;;;16.00;7.45;;;28.60;59.40;;;;;;6183285;28;80391;-66
2021/07/09 14:38:42;;;;;;;13.18;7.40;;;28.70;59.50;;;;;;6184377;28;82105;-66
2021/07/09 14:41:42;;;;;;;12.60;6.78;;;28.60;59.30;;;;;;6176867;28;80336;-66
2021/07/09 14:44:43;;;;;;;16.33;6.88;;;28.70;59.50;;;;;;6183912;28;80378;-66
2021/07/09 14:47:43;;;;;;;10.65;6.82;;;28.70;59.70;;;;;;6176124;28;81375;-66
2021/07/09 14:50:44;;;;;;;11.95;7.43;;;28.70;59.50;;;;;;6184306;28;82794;-66
2021/07/09 14:53:44;;;;;;;8.05;5.85;;;28.70;59.50;;;;;;6183699;28;80085;-65
2021/07/09 14:56:45;;;;;;;11.38;6.70;;;28.70;59.70;;;;;;6180823;28;83810;-65
2021/07/09 14:59:45;;;;;;;11.73;7.03;;;28.70;60.00;;;;;;6183260;28;81376;-65
2021/07/09 15:02:46;;;;;;;14.48;7.40;;;28.70;60.50;;;;;;6173830;28;80539;-67
2021/07/09 15:05:46;;;;;;;13.13;8.10;;;28.70;61.10;;;;;;6176819;28;80604;-67
2021/07/09 15:08:47;;;;;;;11.48;7.55;;;28.70;61.20;;;;;;6182761;28;81014;-66
2021/07/09 15:11:47;;;;;;;10.77;7.35;;;28.70;61.50;;;;;;6182177;28;80397;-66
2021/07/09 15:14:48;;;;;;;18.40;8.23;;;28.70;61.30;;;;;;6170632;28;80319;-66
2021/07/09 15:17:50;;;;;;;12.13;8.15;;;28.70;61.60;;;;;;6182578;28;80945;-65
2021/07/09 15:20:50;;;;;;;11.43;7.63;;;28.70;61.50;;;;;;6179852;28;80654;-66